Time;durP1;ratioP1;P1;durP2;ratioP2;P2;SDS_P1;SDS_P2;PMS_P1;PMS_P2;Temp;Humidity;BMP_temperature;BMP_pressure;BME280_temperature;BME280_humidity;BME280_pressure;Samples;Min_cycle;Max_cycle;Signal;HPM_P1;HPM_P2
2024/01/18 00:01:10;;;;;;;;;;;;;;;-1.43;87.17;98097.61;109153;1262;68836;-64
2024/01/18 00:03:39;;;;;;;;;;;;;;;-1.24;87.03;98083.92;109546;1252;71449;-61
2024/01/18 00:06:07;;;;;;;;;;;;;;;-1.11;84.82;98075.33;109566;1253;62230;-63
2024/01/18 00:08:35;;;;;;;;;;;;;;;-1.04;83.84;98056.02;109246;1253;59039;-64
2024/01/18 00:11:02;;;;;;;;;;;;;;;-0.99;82.88;98055.86;109593;1253;72730;-61
2024/01/18 00:13:30;;;;;;;;;;;;;;;-1.07;83.54;98051.72;109581;1252;68192;-61
2024/01/18 00:15:57;;;;;;;;;;;;;;;-1.24;85.06;98024.59;109572;1252;71766;-61
2024/01/18 00:18:25;;;;;;;;;;;;;;;-1.10;85.84;98021.92;109530;1253;61713;-61
2024/01/18 00:20:53;;;;;;;;;;;;;;;-1.10;86.24;98015.55;109569;1252;58980;-60
2024/01/18 00:23:20;;;;;;;;;;;;;;;-1.10;86.88;98011.58;109422;1254;73364;-62
2024/01/18 00:25:48;;;;;;;;;;;;;;;-0.99;86.28;98001.02;109329;1254;67340;-61
2024/01/18 00:28:15;;;;;;;;;;;;;;;-0.88;86.25;98002.40;109324;1254;71493;-61
2024/01/18 00:30:43;;;;;;;;;;;;;;;-0.82;86.37;97992.00;109339;1255;60457;-61
2024/01/18 00:33:10;;;;;;;;;;;;;;;-0.75;86.46;97994.73;109328;1254;58956;-61
2024/01/18 00:35:38;;;;;;;;;;;;;;;-0.68;86.30;97983.60;109358;1255;74719;-62
2024/01/18 00:38:06;;;;;;;;;;;;;;;-0.61;86.38;97979.38;109297;1257;67285;-61
2024/01/18 00:40:34;;;;;;;;;;;;;;;-0.61;86.47;97968.21;109319;1254;70899;-62
2024/01/18 00:43:01;;;;;;;;;;;;;;;-0.55;86.54;97961.95;109310;1256;60489;-65
2024/01/18 00:45:28;;;;;;;;;;;;;;;-0.51;86.08;97952.46;109305;1254;58956;-63
2024/01/18 00:47:56;;;;;;;;;;;;;;;-0.64;87.31;97930.05;109407;1254;74768;-62
2024/01/18 00:50:24;;;;;;;;;;;;;;;-0.44;86.59;97931.72;109436;1253;67298;-64
2024/01/18 00:52:51;;;;;;;;;;;;;;;-0.37;85.96;97919.58;109433;1254;72718;-63
2024/01/18 00:55:18;;;;;;;;;;;;;;;-0.23;85.98;97916.41;109359;1254;60656;-64
2024/01/18 00:57:46;;;;;;;;;;;;;;;-0.33;87.37;97900.16;109554;1253;58934;-64
2024/01/18 01:00:14;;;;;;;;;;;;;;;-0.38;87.52;97894.66;109534;1253;73446;-64
2024/01/18 01:02:41;;;;;;;;;;;;;;;-0.43;88.11;97892.20;109568;1253;67640;-64
2024/01/18 01:05:09;;;;;;;;;;;;;;;-0.17;86.98;97889.93;109521;1253;72741;-63
2024/01/18 01:07:36;;;;;;;;;;;;;;;-0.35;88.20;97880.66;109560;1253;60482;-64
2024/01/18 01:10:05;;;;;;;;;;;;;;;-0.34;88.33;97877.73;109648;1251;58948;-61
2024/01/18 01:12:33;;;;;;;;;;;;;;;-0.27;88.01;97867.11;109606;1253;73424;-61
2024/01/18 01:15:01;;;;;;;;;;;;;;;-0.16;87.32;97875.45;109619;1251;68711;-60
2024/01/18 01:17:28;;;;;;;;;;;;;;;0.00;86.52;97865.09;109468;1254;71131;-60
2024/01/18 01:19:56;;;;;;;;;;;;;;;-0.17;87.43;97856.48;109383;1254;60604;-62
2024/01/18 01:22:23;;;;;;;;;;;;;;;-0.02;87.01;97848.95;109362;1254;59043;-63
2024/01/18 01:24:51;;;;;;;;;;;;;;;-0.04;87.54;97835.65;109347;1254;74722;-64
2024/01/18 01:27:18;;;;;;;;;;;;;;;-0.11;88.71;97824.89;109247;1257;68421;-61
2024/01/18 01:29:46;;;;;;;;;;;;;;;-0.03;89.43;97820.48;109122;1257;71502;-60
2024/01/18 01:32:13;;;;;;;;;;;;;;;0.02;89.92;97805.30;109074;1262;61759;-60
2024/01/18 01:34:41;;;;;;;;;;;;;;;0.15;89.92;97791.23;109032;1257;58869;-60
2024/01/18 01:37:08;;;;;;;;;;;;;;;0.40;89.41;97783.30;109042;1257;73439;-64
2024/01/18 01:39:36;;;;;;;;;;;;;;;0.40;89.90;97788.44;109050;1257;68565;-60
2024/01/18 01:42:03;;;;;;;;;;;;;;;0.41;90.63;97770.17;109011;1257;72736;-63
2024/01/18 01:44:31;;;;;;;;;;;;;;;0.72;89.75;97787.50;109013;1259;61758;-63
2024/01/18 01:46:58;;;;;;;;;;;;;;;0.77;89.70;97779.70;109009;1257;59888;-60
2024/01/18 01:49:26;;;;;;;;;;;;;;;0.73;90.59;97767.98;109184;1257;74727;-60
2024/01/18 01:51:54;;;;;;;;;;;;;;;0.83;90.85;97764.95;109335;1257;68940;-60
2024/01/18 01:54:21;;;;;;;;;;;;;;;1.11;89.44;97759.46;109227;1257;72768;-60
2024/01/18 01:56:49;;;;;;;;;;;;;;;1.02;90.50;97747.29;109176;1257;60472;-60
2024/01/18 01:59:17;;;;;;;;;;;;;;;1.25;89.93;97751.98;109258;1254;59056;-59
2024/01/18 02:01:44;;;;;;;;;;;;;;;1.15;91.15;97753.70;109110;1254;74712;-63
2024/01/18 02:04:12;;;;;;;;;;;;;;;1.18;91.64;97741.20;109402;1253;69015;-63
2024/01/18 02:06:40;;;;;;;;;;;;;;;1.68;89.55;97739.27;109457;1253;72705;-63
2024/01/18 02:09:08;;;;;;;;;;;;;;;1.59;90.09;97729.56;109395;1259;60572;-61
2024/01/18 02:11:36;;;;;;;;;;;;;;;1.49;91.33;97724.98;109530;1253;58957;-60
2024/01/18 02:14:03;;;;;;;;;;;;;;;1.61;91.39;97727.33;109447;1254;74747;-60
2024/01/18 02:16:32;;;;;;;;;;;;;;;1.84;90.63;97713.55;109462;1253;68864;-60
2024/01/18 02:19:00;;;;;;;;;;;;;;;1.87;90.80;97694.92;109268;1253;71495;-62
2024/01/18 02:21:27;;;;;;;;;;;;;;;1.86;90.88;97706.89;109422;1253;61716;-62
2024/01/18 02:24:15;;;;;;;;;;;;;;;1.61;92.91;97706.02;109374;1254;58952;-63
2024/01/18 02:26:43;;;;;;;;;;;;;;;1.56;93.62;97707.25;109446;1254;74754;-63
2024/01/18 02:29:10;;;;;;;;;;;;;;;1.80;93.04;97712.00;109416;1258;66314;-62
2024/01/18 02:31:38;;;;;;;;;;;;;;;1.90;92.49;97702.27;109464;1253;72030;-63
2024/01/18 02:34:09;;;;;;;;;;;;;;;2.12;91.82;97699.08;109401;1254;61751;-61
2024/01/18 02:36:37;;;;;;;;;;;;;;;2.08;92.46;97685.32;109295;1253;59867;-60
2024/01/18 02:39:05;;;;;;;;;;;;;;;2.14;92.29;97682.06;109432;1254;73481;-63
2024/01/18 02:41:32;;;;;;;;;;;;;;;2.37;91.40;97677.95;109277;1254;67860;-61
2024/01/18 02:44:00;;;;;;;;;;;;;;;2.30;92.09;97664.20;106953;1254;1002794;-63
2024/01/18 02:46:34;;;;;;;;;;;;;;;2.56;90.62;97658.58;109249;1254;61033;-62
2024/01/18 02:49:01;;;;;;;;;;;;;;;2.30;92.42;97656.58;109346;1254;59003;-62
2024/01/18 02:51:30;;;;;;;;;;;;;;;2.57;91.50;97654.88;109262;1254;74768;-62
2024/01/18 02:53:58;;;;;;;;;;;;;;;2.64;90.97;97647.63;109038;1254;66486;-61
2024/01/18 02:56:26;;;;;;;;;;;;;;;2.46;92.02;97643.63;109160;1254;72736;-63
2024/01/18 02:58:53;;;;;;;;;;;;;;;2.49;92.36;97629.36;109111;1260;60952;-59
2024/01/18 03:01:21;;;;;;;;;;;;;;;2.40;93.25;97626.40;109207;1254;58970;-63
2024/01/18 03:03:48;;;;;;;;;;;;;;;2.61;92.90;97617.41;109298;1255;74676;-62
2024/01/18 03:06:16;;;;;;;;;;;;;;;2.75;91.96;97620.80;109297;1254;67709;-60
2024/01/18 03:08:43;;;;;;;;;;;;;;;2.59;93.00;97613.78;109221;1257;72787;-63
2024/01/18 03:11:11;;;;;;;;;;;;;;;2.47;94.59;97605.19;109231;1257;59679;-61
2024/01/18 03:13:38;;;;;;;;;;;;;;;2.56;94.80;97593.32;109172;1254;58957;-61
2024/01/18 03:16:08;;;;;;;;;;;;;;;2.70;94.08;97591.60;109106;1254;74710;-63
2024/01/18 03:18:36;;;;;;;;;;;;;;;2.77;93.81;97585.83;109407;1254;68876;-64
2024/01/18 03:21:04;;;;;;;;;;;;;;;2.83;93.65;97587.64;109615;1253;71804;-62
2024/01/18 03:23:32;;;;;;;;;;;;;;;2.84;94.00;97586.47;109588;1254;60084;-63
2024/01/18 03:25:59;;;;;;;;;;;;;;;2.94;93.82;97580.10;109436;1253;58962;-61
2024/01/18 03:28:27;;;;;;;;;;;;;;;3.00;94.06;97577.49;109409;1254;74712;-64
2024/01/18 03:30:55;;;;;;;;;;;;;;;2.96;94.43;97571.48;109415;1253;68783;-60
2024/01/18 03:33:22;;;;;;;;;;;;;;;2.97;94.82;97558.55;109598;1252;72738;-64
2024/01/18 03:35:50;;;;;;;;;;;;;;;3.14;94.33;97562.18;109631;1254;60976;-61
2024/01/18 03:38:17;;;;;;;;;;;;;;;3.12;94.56;97558.55;109370;1253;59073;-63
2024/01/18 03:40:45;;;;;;;;;;;;;;;3.16;95.15;97560.29;109614;1253;74704;-64
2024/01/18 03:43:12;;;;;;;;;;;;;;;3.28;94.77;97552.26;109625;1252;67652;-61
2024/01/18 03:45:39;;;;;;;;;;;;;;;3.27;95.35;97553.11;109585;1253;71504;-62
2024/01/18 03:48:07;;;;;;;;;;;;;;;3.29;96.03;97553.38;109451;1251;59650;-60
2024/01/18 03:50:35;;;;;;;;;;;;;;;3.29;96.43;97546.86;109242;1251;58994;-61
2024/01/18 03:53:02;;;;;;;;;;;;;;;3.46;96.04;97559.95;109683;1251;73636;-62
2024/01/18 03:55:30;;;;;;;;;;;;;;;3.50;95.68;97558.70;109670;1251;68898;-60
2024/01/18 03:57:58;;;;;;;;;;;;;;;3.52;95.92;97559.89;109676;1251;72781;-63
2024/01/18 04:00:25;;;;;;;;;;;;;;;3.49;96.83;97552.76;109416;1251;59652;-61
2024/01/18 04:02:53;;;;;;;;;;;;;;;3.46;97.46;97555.61;109387;1251;59042;-60
2024/01/18 04:05:21;;;;;;;;;;;;;;;3.36;98.53;97538.36;109652;1251;75976;-60
2024/01/18 04:07:48;;;;;;;;;;;;;;;3.49;98.37;97534.08;109653;1251;68786;-64
2024/01/18 04:10:16;;;;;;;;;;;;;;;3.61;98.09;97538.34;109629;1251;71895;-61
2024/01/18 04:12:44;;;;;;;;;;;;;;;3.67;98.65;97535.66;109675;1254;59635;-61
2024/01/18 04:15:11;;;;;;;;;;;;;;;3.67;98.62;97522.23;109696;1250;60288;-60
2024/01/18 04:17:39;;;;;;;;;;;;;;;3.79;98.21;97520.44;109648;1251;74703;-60
2024/01/18 04:20:07;;;;;;;;;;;;;;;3.82;98.36;97512.95;109653;1250;68844;-60
2024/01/18 04:22:35;;;;;;;;;;;;;;;3.73;99.26;97511.02;109612;1251;72775;-60
2024/01/18 04:25:03;;;;;;;;;;;;;;;3.81;99.51;97511.58;108869;1254;1002431;-62
2024/01/18 04:27:31;;;;;;;;;;;;;;;3.94;99.24;97494.69;109630;1251;59859;-66
2024/01/18 04:29:58;;;;;;;;;;;;;;;3.98;99.10;97492.58;109672;1251;74678;-61
2024/01/18 04:32:26;;;;;;;;;;;;;;;4.38;97.24;97491.60;109639;1250;67499;-60
2024/01/18 04:34:54;;;;;;;;;;;;;;;4.37;97.38;97483.24;109656;1251;71452;-59
2024/01/18 04:37:21;;;;;;;;;;;;;;;4.52;96.81;97471.41;109613;1251;60861;-60
2024/01/18 04:39:49;;;;;;;;;;;;;;;4.47;97.13;97464.83;109632;1251;61177;-59
2024/01/18 04:42:16;;;;;;;;;;;;;;;4.46;97.73;97468.17;109668;1251;76073;-60
2024/01/18 04:44:44;;;;;;;;;;;;;;;4.45;97.98;97464.83;109651;1251;67815;-58
2024/01/18 04:47:11;;;;;;;;;;;;;;;4.41;98.47;97462.64;109628;1251;72968;-58
2024/01/18 04:49:38;;;;;;;;;;;;;;;4.45;98.71;97465.48;109306;1254;61998;-59
2024/01/18 04:52:06;;;;;;;;;;;;;;;4.37;99.53;97461.95;109662;1251;61138;-58
2024/01/18 04:54:33;;;;;;;;;;;;;;;4.20;100.00;97464.48;109635;1254;76730;-59
2024/01/18 04:57:01;;;;;;;;;;;;;;;4.37;99.96;97455.10;109675;1251;69000;-59
2024/01/18 04:59:29;;;;;;;;;;;;;;;4.38;99.96;97455.90;109385;1251;74940;-60
2024/01/18 05:01:56;;;;;;;;;;;;;;;4.52;99.55;97452.61;109640;1253;61481;-60
2024/01/18 05:04:24;;;;;;;;;;;;;;;4.57;99.63;97451.60;109695;1251;58995;-61
2024/01/18 05:06:51;;;;;;;;;;;;;;;4.58;99.93;97463.08;109237;1251;76982;-58
2024/01/18 05:09:19;;;;;;;;;;;;;;;4.59;99.87;97465.52;109638;1251;69773;-63
2024/01/18 05:11:47;;;;;;;;;;;;;;;4.37;100.00;97467.00;109284;1251;73191;-61
2024/01/18 05:14:14;;;;;;;;;;;;;;;4.42;100.00;97451.23;109502;1253;61963;-60
2024/01/18 05:16:43;;;;;;;;;;;;;;;4.44;100.00;97452.08;109654;1251;59198;-64
2024/01/18 05:19:11;;;;;;;;;;;;;;;4.51;100.00;97447.40;109512;1250;73085;-63
2024/01/18 05:21:39;;;;;;;;;;;;;;;4.25;100.00;97440.58;109383;1250;69194;-59
2024/01/18 05:24:07;;;;;;;;;;;;;;;4.17;100.00;97429.95;109611;1251;73064;-60
2024/01/18 05:26:34;;;;;;;;;;;;;;;4.57;100.00;97418.02;109573;1254;59572;-59
2024/01/18 05:29:02;;;;;;;;;;;;;;;4.91;100.00;97415.31;109652;1251;60368;-60
2024/01/18 05:31:29;;;;;;;;;;;;;;;4.80;100.00;97402.42;109389;1254;73362;-60
2024/01/18 05:33:57;;;;;;;;;;;;;;;4.92;100.00;97402.92;109145;1254;69386;-60
2024/01/18 05:36:24;;;;;;;;;;;;;;;4.88;100.00;97401.61;109179;1254;72658;-61
2024/01/18 05:38:52;;;;;;;;;;;;;;;4.81;100.00;97400.56;109227;1254;59574;-62
2024/01/18 05:41:22;;;;;;;;;;;;;;;4.83;100.00;97394.01;109296;1254;59097;-64
2024/01/18 05:43:49;;;;;;;;;;;;;;;4.94;100.00;97394.59;109217;1254;73707;-64
2024/01/18 05:46:17;;;;;;;;;;;;;;;4.95;100.00;97388.58;109296;1254;67609;-65
2024/01/18 05:48:48;;;;;;;;;;;;;;;4.98;100.00;97390.84;109219;1256;72719;-63
2024/01/18 05:51:16;;;;;;;;;;;;;;;5.09;99.98;97392.52;108952;1257;61145;-64
2024/01/18 05:53:44;;;;;;;;;;;;;;;4.98;100.00;97386.11;109125;1257;61243;-66
2024/01/18 05:56:11;;;;;;;;;;;;;;;4.43;100.00;97379.51;108960;1257;74569;-64
2024/01/18 05:58:39;;;;;;;;;;;;;;;4.49;100.00;97371.70;109083;1257;71129;-66
2024/01/18 06:01:09;;;;;;;;;;;;;;;4.58;100.00;97365.39;109087;1257;74111;-60
2024/01/18 06:03:36;;;;;;;;;;;;;;;4.70;100.00;97361.30;109237;1256;60074;-64
2024/01/18 06:06:04;;;;;;;;;;;;;;;4.74;100.00;97363.30;109299;1254;59074;-65
2024/01/18 06:08:32;;;;;;;;;;;;;;;4.65;100.00;97362.38;108758;1254;75853;-61
2024/01/18 06:10:59;;;;;;;;;;;;;;;4.73;100.00;97364.05;109283;1254;69309;-65
2024/01/18 06:13:27;;;;;;;;;;;;;;;4.68;100.00;97369.53;109362;1254;71994;-67
2024/01/18 06:15:54;;;;;;;;;;;;;;;5.08;100.00;97370.02;109387;1253;60297;-63
2024/01/18 06:18:22;;;;;;;;;;;;;;;4.85;100.00;97365.36;109390;1254;60691;-64
2024/01/18 06:20:49;;;;;;;;;;;;;;;4.58;100.00;97362.96;109307;1251;76686;-64
2024/01/18 06:23:17;;;;;;;;;;;;;;;4.95;100.00;97360.59;109344;1251;69922;-62
2024/01/18 06:25:44;;;;;;;;;;;;;;;4.87;100.00;97355.73;109422;1251;72535;-65
2024/01/18 06:28:12;;;;;;;;;;;;;;;5.03;100.00;97354.52;109516;1251;61004;-64
2024/01/18 06:30:43;;;;;;;;;;;;;;;5.14;100.00;97350.80;109586;1251;61560;-65
2024/01/18 06:33:12;;;;;;;;;;;;;;;5.35;100.00;97345.65;109425;1252;76429;-65
2024/01/18 06:35:40;;;;;;;;;;;;;;;5.08;100.00;97341.19;109542;1251;68427;-65
2024/01/18 06:38:07;;;;;;;;;;;;;;;4.72;100.00;97338.11;109521;1251;72667;-67
2024/01/18 06:40:35;;;;;;;;;;;;;;;4.68;100.00;97343.55;109490;1254;60560;-68
2024/01/18 06:43:02;;;;;;;;;;;;;;;5.00;100.00;97338.62;109268;1251;59357;-68
2024/01/18 06:45:30;;;;;;;;;;;;;;;5.07;100.00;97329.71;109504;1251;75093;-69
2024/01/18 06:47:57;;;;;;;;;;;;;;;5.33;100.00;97335.39;109647;1253;68876;-69
2024/01/18 06:50:25;;;;;;;;;;;;;;;5.49;100.00;97333.51;109523;1252;73248;-68
2024/01/18 06:52:52;;;;;;;;;;;;;;;5.51;100.00;97322.91;109070;1253;63072;-69
2024/01/18 06:55:21;;;;;;;;;;;;;;;5.49;100.00;97318.70;109480;1253;58902;-69
2024/01/18 06:57:48;;;;;;;;;;;;;;;5.73;99.73;97314.09;109398;1251;76944;-68
2024/01/18 07:00:16;;;;;;;;;;;;;;;5.77;99.59;97314.77;109596;1251;67471;-69
2024/01/18 07:02:44;;;;;;;;;;;;;;;5.91;98.55;97317.37;109610;1251;74061;-68
2024/01/18 07:05:11;;;;;;;;;;;;;;;5.87;98.45;97308.66;109618;1251;61939;-67
2024/01/18 07:07:39;;;;;;;;;;;;;;;5.96;97.92;97304.73;109619;1251;58961;-68
2024/01/18 07:10:06;;;;;;;;;;;;;;;5.92;97.67;97299.48;109622;1251;74577;-68
2024/01/18 07:12:34;;;;;;;;;;;;;;;5.85;97.77;97293.79;109624;1251;68381;-69
2024/01/18 07:15:27;;;;;;;;;;;;;;;5.89;97.29;97287.13;109644;1251;74832;-70
2024/01/18 07:17:54;;;;;;;;;;;;;;;5.78;97.69;97282.16;109605;1253;59837;-68
2024/01/18 07:20:22;;;;;;;;;;;;;;;5.97;96.58;97291.71;109611;1251;62109;-70
2024/01/18 07:22:49;;;;;;;;;;;;;;;5.93;96.29;97289.84;109543;1251;76906;-67
2024/01/18 07:25:17;;;;;;;;;;;;;;;5.86;97.04;97283.86;109638;1251;69531;-65
2024/01/18 07:27:46;;;;;;;;;;;;;;;5.98;95.93;97291.67;109608;1251;71421;-65
2024/01/18 07:30:14;;;;;;;;;;;;;;;6.28;94.28;97285.88;109629;1253;59603;-66
2024/01/18 07:32:43;;;;;;;;;;;;;;;6.12;94.78;97279.90;109626;1251;59311;-66
2024/01/18 07:35:11;;;;;;;;;;;;;;;5.89;96.43;97263.18;109610;1251;75943;-66
2024/01/18 07:37:38;;;;;;;;;;;;;;;6.20;94.48;97277.05;109598;1251;69142;-67
2024/01/18 07:40:06;;;;;;;;;;;;;;;6.34;93.27;97277.34;109606;1251;73191;-67
2024/01/18 07:42:34;;;;;;;;;;;;;;;6.37;92.61;97287.81;109449;1251;59372;-68
2024/01/18 07:45:07;;;;;;;;;;;;;;;6.38;92.81;97288.61;109196;1251;59054;-68
2024/01/18 07:47:34;;;;;;;;;;;;;;;6.49;91.38;97286.52;109578;1251;76089;-69
2024/01/18 07:50:02;;;;;;;;;;;;;;;6.24;92.86;97271.52;109628;1251;69258;-69
2024/01/18 07:52:50;;;;;;;;;;;;;;;6.14;93.50;97276.56;109588;1251;71461;-69
2024/01/18 07:55:18;;;;;;;;;;;;;;;6.27;92.83;97260.79;109550;1251;60458;-69
2024/01/18 07:57:48;;;;;;;;;;;;;;;6.34;92.54;97269.55;109517;1253;59947;-69
2024/01/18 08:00:16;;;;;;;;;;;;;;;6.24;92.47;97266.94;109541;1253;76085;-69
2024/01/18 08:02:44;;;;;;;;;;;;;;;6.22;92.87;97277.69;109444;1253;69961;-69
2024/01/18 08:05:12;;;;;;;;;;;;;;;6.47;91.31;97285.58;109458;1252;70969;-69
2024/01/18 08:07:39;;;;;;;;;;;;;;;6.47;91.02;97285.58;109466;1253;59435;-69
2024/01/18 08:10:08;;;;;;;;;;;;;;;6.37;91.83;97274.02;109565;1253;60091;-66
2024/01/18 08:12:36;;;;;;;;;;;;;;;6.43;91.90;97276.51;109624;1251;75264;-68
2024/01/18 08:15:04;;;;;;;;;;;;;;;6.54;90.61;97268.30;109615;1251;68192;-67
2024/01/18 08:17:32;;;;;;;;;;;;;;;6.83;88.85;97280.98;109642;1251;74003;-68
2024/01/18 08:20:00;;;;;;;;;;;;;;;6.84;88.49;97278.67;109590;1252;59411;-66
2024/01/18 08:22:28;;;;;;;;;;;;;;;7.05;87.48;97285.14;109598;1251;59943;-63
2024/01/18 08:24:57;;;;;;;;;;;;;;;7.09;86.92;97278.16;109587;1251;75316;-66
2024/01/18 08:27:24;;;;;;;;;;;;;;;7.06;86.85;97269.98;109635;1251;70967;-66
2024/01/18 08:29:52;;;;;;;;;;;;;;;7.35;84.78;97265.88;109571;1253;71318;-65
2024/01/18 08:32:19;;;;;;;;;;;;;;;7.36;84.26;97262.05;109318;1251;60174;-65
2024/01/18 08:34:47;;;;;;;;;;;;;;;7.34;84.13;97262.34;109622;1251;59908;-66
2024/01/18 08:37:14;;;;;;;;;;;;;;;7.22;84.87;97259.31;109387;1251;77047;-65
2024/01/18 08:39:42;;;;;;;;;;;;;;;7.30;84.55;97262.40;109590;1251;70075;-65
2024/01/18 08:42:10;;;;;;;;;;;;;;;7.26;84.88;97257.56;109609;1251;74741;-64
2024/01/18 08:44:38;;;;;;;;;;;;;;;7.69;82.07;97264.02;109607;1251;60563;-63
2024/01/18 08:47:06;;;;;;;;;;;;;;;7.55;81.97;97261.83;109638;1251;59743;-62
2024/01/18 08:49:35;;;;;;;;;;;;;;;7.54;81.95;97254.06;109451;1251;73361;-64
2024/01/18 08:52:03;;;;;;;;;;;;;;;7.52;81.53;97256.92;109384;1250;69024;-64
2024/01/18 08:54:31;;;;;;;;;;;;;;;7.42;82.27;97260.65;109602;1251;73248;-68
2024/01/18 08:56:59;;;;;;;;;;;;;;;7.33;82.55;97253.88;109614;1253;61217;-67
2024/01/18 08:59:26;;;;;;;;;;;;;;;7.45;81.70;97250.93;109619;1251;59232;-67
2024/01/18 09:01:55;;;;;;;;;;;;;;;7.15;83.54;97246.16;109685;1251;74092;-68
2024/01/18 09:04:24;;;;;;;;;;;;;;;7.21;83.14;97248.19;109643;1251;71125;-68
2024/01/18 09:06:52;;;;;;;;;;;;;;;7.45;81.83;97246.13;109671;1250;71863;-68
2024/01/18 09:09:19;;;;;;;;;;;;;;;7.46;81.38;97247.71;109589;1251;61219;-69
2024/01/18 09:11:47;;;;;;;;;;;;;;;7.46;81.05;97236.07;109658;1250;59125;-69
2024/01/18 09:14:14;;;;;;;;;;;;;;;7.30;81.99;97234.13;109471;1250;75773;-69
2024/01/18 09:16:42;;;;;;;;;;;;;;;7.42;81.86;97233.09;109573;1250;67962;-69
2024/01/18 09:19:09;;;;;;;;;;;;;;;7.30;81.89;97229.63;109671;1251;72801;-68
2024/01/18 09:21:42;;;;;;;;;;;;;;;7.52;81.35;97237.42;109627;1251;59607;-69
2024/01/18 09:24:09;;;;;;;;;;;;;;;7.68;79.89;97233.80;109647;1251;59378;-70
2024/01/18 09:26:37;;;;;;;;;;;;;;;7.80;79.03;97235.17;109658;1251;74029;-70
2024/01/18 09:29:05;;;;;;;;;;;;;;;7.97;77.85;97221.90;109482;1250;69475;-70
2024/01/18 09:31:33;;;;;;;;;;;;;;;7.90;77.88;97221.65;109615;1251;74588;-70
2024/01/18 09:34:10;;;;;;;;;;;;;;;7.95;77.33;97219.39;109628;1252;59072;-70
2024/01/18 09:36:38;;;;;;;;;;;;;;;8.16;76.12;97222.49;109650;1251;58922;-70
2024/01/18 09:39:08;;;;;;;;;;;;;;;8.10;76.08;97217.95;109618;1250;75087;-71
2024/01/18 09:41:36;;;;;;;;;;;;;;;8.00;76.78;97213.37;109470;1254;67186;-71
2024/01/18 09:44:04;;;;;;;;;;;;;;;8.07;76.45;97209.92;109392;1254;71017;-71
2024/01/18 09:46:32;;;;;;;;;;;;;;;8.02;76.87;97202.61;109361;1255;61684;-71
2024/01/18 09:48:59;;;;;;;;;;;;;;;8.03;77.12;97189.40;109472;1254;59917;-74
2024/01/18 09:51:31;;;;;;;;;;;;;;;7.96;77.40;97190.84;109458;1253;73408;-72
2024/01/18 09:54:00;;;;;;;;;;;;;;;8.02;77.30;97189.50;109354;1256;67711;-72
2024/01/18 09:56:28;;;;;;;;;;;;;;;8.18;76.36;97196.59;108896;1255;133090;-71
2024/01/18 09:58:56;;;;;;;;;;;;;;;8.00;77.01;97198.40;109270;1255;60981;-70
2024/01/18 10:01:25;;;;;;;;;;;;;;;8.02;77.06;97194.21;109309;1255;58960;-71
2024/01/18 10:03:53;;;;;;;;;;;;;;;7.98;77.35;97194.83;109168;1256;74179;-72
2024/01/18 10:06:21;;;;;;;;;;;;;;;7.99;76.96;97187.05;109295;1255;70324;-71
2024/01/18 10:08:51;;;;;;;;;;;;;;;8.06;76.72;97187.67;109140;1256;74985;-69
2024/01/18 10:11:19;;;;;;;;;;;;;;;8.07;76.81;97189.90;109216;1256;58968;-71
2024/01/18 10:13:47;;;;;;;;;;;;;;;7.96;77.00;97181.05;109425;1253;59131;-70
2024/01/18 10:16:24;;;;;;;;;;;;;;;7.86;77.49;97184.02;109495;1253;74428;-70
2024/01/18 10:18:51;;;;;;;;;;;;;;;7.81;77.95;97186.23;109194;1253;68612;-71
2024/01/18 10:21:20;;;;;;;;;;;;;;;7.99;77.34;97182.56;109586;1253;73023;-70
2024/01/18 10:23:47;;;;;;;;;;;;;;;8.05;76.84;97186.09;109582;1252;60980;-71
2024/01/18 10:26:16;;;;;;;;;;;;;;;8.06;76.88;97182.86;109575;1251;62053;-71
2024/01/18 10:28:44;;;;;;;;;;;;;;;7.99;77.55;97176.27;109658;1250;73421;-70
2024/01/18 10:31:11;;;;;;;;;;;;;;;8.01;77.39;97172.64;109612;1250;68468;-70
2024/01/18 10:33:39;;;;;;;;;;;;;;;8.01;77.41;97172.36;109607;1251;71735;-71
2024/01/18 10:36:07;;;;;;;;;;;;;;;8.03;77.46;97164.77;109603;1251;62013;-70
2024/01/18 10:38:38;;;;;;;;;;;;;;;7.79;79.36;97161.00;109659;1251;59407;-71
2024/01/18 10:41:08;;;;;;;;;;;;;;;7.89;79.19;97159.54;109432;1251;74092;-70
2024/01/18 10:43:36;;;;;;;;;;;;;;;7.99;79.07;97157.95;109655;1251;68765;-71
2024/01/18 10:46:04;;;;;;;;;;;;;;;8.01;79.17;97153.23;109644;1250;73640;-70
2024/01/18 10:48:35;;;;;;;;;;;;;;;8.12;78.77;97144.92;109514;1250;60250;-70
2024/01/18 10:51:05;;;;;;;;;;;;;;;8.14;79.19;97144.71;109643;1251;59973;-70
2024/01/18 10:53:36;;;;;;;;;;;;;;;7.99;80.68;97146.02;109671;1251;73138;-70
2024/01/18 10:56:04;;;;;;;;;;;;;;;8.04;81.38;97145.05;109329;1251;66901;-70
2024/01/18 10:58:32;;;;;;;;;;;;;;;8.08;81.08;97138.70;109344;1251;73131;-70
2024/01/18 11:00:59;;;;;;;;;;;;;;;8.18;81.00;97139.89;109516;1253;61257;-70
2024/01/18 11:03:27;;;;;;;;;;;;;;;8.11;81.46;97132.11;109299;1254;59070;-70
2024/01/18 11:05:54;;;;;;;;;;;;;;;8.09;82.39;97134.40;109473;1251;73615;-70
2024/01/18 11:08:22;;;;;;;;;;;;;;;7.92;83.39;97126.68;109393;1251;70273;-70
2024/01/18 11:10:50;;;;;;;;;;;;;;;8.17;82.38;97125.22;109638;1251;74973;-70
2024/01/18 11:13:17;;;;;;;;;;;;;;;8.28;81.62;97118.48;109634;1251;60441;-70
2024/01/18 11:15:47;;;;;;;;;;;;;;;8.30;81.38;97110.10;109570;1251;60885;-70
2024/01/18 11:18:15;;;;;;;;;;;;;;;8.03;82.35;97102.40;109232;1251;76968;-69
2024/01/18 11:20:57;;;;;;;;;;;;;;;7.77;84.73;97099.57;109635;1250;68639;-70
2024/01/18 11:23:25;;;;;;;;;;;;;;;7.73;85.55;97096.85;109643;1251;73053;-69
2024/01/18 11:25:53;;;;;;;;;;;;;;;7.79;85.65;97095.42;109598;1251;59552;-70
2024/01/18 11:28:22;;;;;;;;;;;;;;;7.75;85.63;97086.20;109626;1251;60427;-69
2024/01/18 11:30:50;;;;;;;;;;;;;;;7.66;86.57;97091.02;109649;1250;76108;-69
2024/01/18 11:33:18;;;;;;;;;;;;;;;7.67;87.18;97088.06;109529;1250;70644;-70
2024/01/18 11:35:45;;;;;;;;;;;;;;;7.54;88.19;97082.73;109499;1253;71454;-69
2024/01/18 11:38:19;;;;;;;;;;;;;;;7.43;88.91;97077.73;109223;1255;58963;-69
2024/01/18 11:40:49;;;;;;;;;;;;;;;7.58;88.73;97080.89;109451;1254;62110;-70
2024/01/18 11:43:17;;;;;;;;;;;;;;;7.47;89.70;97077.29;109477;1254;75085;-69
2024/01/18 11:45:49;;;;;;;;;;;;;;;7.81;87.94;97075.30;109484;1253;70128;-69
2024/01/18 11:48:18;;;;;;;;;;;;;;;7.90;86.92;97070.66;109370;1254;71791;-69
2024/01/18 11:50:46;;;;;;;;;;;;;;;7.74;87.84;97060.26;109095;1255;61403;-69
2024/01/18 11:53:14;;;;;;;;;;;;;;;7.56;89.11;97061.73;109234;1256;62002;-69
2024/01/18 11:55:43;;;;;;;;;;;;;;;7.75;88.67;97063.51;109366;1255;75956;-70
2024/01/18 11:58:11;;;;;;;;;;;;;;;7.64;89.32;97060.35;109190;1255;66981;-69
2024/01/18 12:00:38;;;;;;;;;;;;;;;7.59;89.80;97065.19;109011;1256;70849;-70
2024/01/18 12:03:07;;;;;;;;;;;;;;;7.47;91.23;97067.11;109153;1256;60205;-69
2024/01/18 12:05:35;;;;;;;;;;;;;;;7.61;90.51;97065.54;109199;1256;59313;-69
2024/01/18 12:08:02;;;;;;;;;;;;;;;7.84;88.58;97068.20;109517;1252;73190;-69
2024/01/18 12:10:31;;;;;;;;;;;;;;;7.71;89.05;97055.73;109526;1253;71081;-68
2024/01/18 12:12:58;;;;;;;;;;;;;;;7.72;88.88;97056.29;109514;1252;72929;-68
2024/01/18 12:15:26;;;;;;;;;;;;;;;7.70;89.03;97049.23;109451;1253;62729;-67
2024/01/18 12:17:55;;;;;;;;;;;;;;;7.53;90.12;97042.60;109530;1252;60079;-67
2024/01/18 12:20:22;;;;;;;;;;;;;;;7.56;90.50;97038.34;109544;1252;74741;-68
2024/01/18 12:22:50;;;;;;;;;;;;;;;7.70;89.56;97041.65;109558;1252;69089;-68
2024/01/18 12:25:17;;;;;;;;;;;;;;;7.62;89.75;97044.04;109537;1252;74008;-67
2024/01/18 12:27:45;;;;;;;;;;;;;;;7.17;92.57;97046.05;109515;1253;61761;-67
2024/01/18 12:30:13;;;;;;;;;;;;;;;7.04;94.16;97051.67;109540;1252;59015;-69
2024/01/18 12:32:41;;;;;;;;;;;;;;;6.97;94.73;97044.86;109450;1253;76973;-69
2024/01/18 12:35:10;;;;;;;;;;;;;;;7.12;93.87;97046.98;109529;1252;69798;-66
2024/01/18 12:37:38;;;;;;;;;;;;;;;7.03;94.16;97052.17;109524;1252;73252;-69
2024/01/18 12:40:07;;;;;;;;;;;;;;;7.07;94.42;97051.93;109508;1252;62783;-68
2024/01/18 12:42:35;;;;;;;;;;;;;;;7.25;93.44;97061.83;109564;1252;58993;-67
2024/01/18 12:45:03;;;;;;;;;;;;;;;7.01;94.37;97056.02;109388;1253;74031;-68
2024/01/18 12:47:31;;;;;;;;;;;;;;;7.02;94.95;97066.73;109574;1251;71112;-68